sensor_id;sensor_type;location;lat;lon;timestamp;P1;durP1;ratioP1;P2;durP2;ratioP2
21492;SDS011;10908;50.690;4.400;2023-03-31T00:00:35;12.98;;;1.88;;
21492;SDS011;10908;50.690;4.400;2023-03-31T00:03:00;15.38;;;2.50;;
21492;SDS011;10908;50.690;4.400;2023-03-31T00:05:26;15.73;;;2.45;;
21492;SDS011;10908;50.690;4.400;2023-03-31T00:07:53;19.95;;;2.45;;
21492;SDS011;10908;50.690;4.400;2023-03-31T00:10:24;13.70;;;2.13;;
21492;SDS011;10908;50.690;4.400;2023-03-31T00:12:57;16.77;;;2.30;;
21492;SDS011;10908;50.690;4.400;2023-03-31T00:15:24;21.45;;;2.80;;
21492;SDS011;10908;50.690;4.400;2023-03-31T00:17:51;17.40;;;2.50;;
21492;SDS011;10908;50.690;4.400;2023-03-31T00:20:16;17.73;;;2.78;;
21492;SDS011;10908;50.690;4.400;2023-03-31T00:22:42;19.67;;;2.78;;
21492;SDS011;10908;50.690;4.400;2023-03-31T00:25:11;19.17;;;2.42;;
21492;SDS011;10908;50.690;4.400;2023-03-31T00:27:40;17.58;;;2.60;;
21492;SDS011;10908;50.690;4.400;2023-03-31T00:30:08;19.15;;;2.40;;
21492;SDS011;10908;50.690;4.400;2023-03-31T00:32:35;14.82;;;2.15;;
21492;SDS011;10908;50.690;4.400;2023-03-31T00:35:01;16.00;;;2.33;;
21492;SDS011;10908;50.690;4.400;2023-03-31T00:37:27;13.90;;;2.20;;
21492;SDS011;10908;50.690;4.400;2023-03-31T00:39:53;16.90;;;2.20;;
21492;SDS011;10908;50.690;4.400;2023-03-31T00:42:20;15.80;;;2.28;;
21492;SDS011;10908;50.690;4.400;2023-03-31T00:47:41;19.83;;;2.45;;
21492;SDS011;10908;50.690;4.400;2023-03-31T00:50:14;13.00;;;2.08;;
21492;SDS011;10908;50.690;4.400;2023-03-31T00:52:45;13.60;;;2.25;;
21492;SDS011;10908;50.690;4.400;2023-03-31T00:55:16;13.68;;;2.20;;
21492;SDS011;10908;50.690;4.400;2023-03-31T00:57:48;14.18;;;1.95;;
21492;SDS011;10908;50.690;4.400;2023-03-31T01:00:17;16.30;;;2.20;;
21492;SDS011;10908;50.690;4.400;2023-03-31T01:02:45;12.70;;;1.85;;
21492;SDS011;10908;50.690;4.400;2023-03-31T01:05:21;16.90;;;2.03;;
21492;SDS011;10908;50.690;4.400;2023-03-31T01:07:52;13.50;;;2.00;;
21492;SDS011;10908;50.690;4.400;2023-03-31T01:10:20;13.07;;;1.75;;
21492;SDS011;10908;50.690;4.400;2023-03-31T01:12:47;9.45;;;1.58;;
21492;SDS011;10908;50.690;4.400;2023-03-31T01:15:15;8.18;;;1.80;;
21492;SDS011;10908;50.690;4.400;2023-03-31T01:17:41;12.77;;;2.05;;
21492;SDS011;10908;50.690;4.400;2023-03-31T01:30:46;14.10;;;1.95;;
21492;SDS011;10908;50.690;4.400;2023-03-31T01:44:32;10.18;;;1.30;;
21492;SDS011;10908;50.690;4.400;2023-03-31T01:47:17;11.95;;;1.80;;
21492;SDS011;10908;50.690;4.400;2023-03-31T01:55:47;12.27;;;1.38;;
21492;SDS011;10908;50.690;4.400;2023-03-31T01:58:24;11.40;;;1.52;;
21492;SDS011;10908;50.690;4.400;2023-03-31T02:01:00;12.43;;;1.55;;
21492;SDS011;10908;50.690;4.400;2023-03-31T02:03:31;9.65;;;2.53;;
21492;SDS011;10908;50.690;4.400;2023-03-31T02:06:03;10.02;;;1.40;;
21492;SDS011;10908;50.690;4.400;2023-03-31T02:08:49;11.77;;;1.83;;
21492;SDS011;10908;50.690;4.400;2023-03-31T02:11:19;7.75;;;1.48;;
21492;SDS011;10908;50.690;4.400;2023-03-31T02:13:47;11.20;;;1.38;;
21492;SDS011;10908;50.690;4.400;2023-03-31T02:16:17;12.05;;;1.88;;
21492;SDS011;10908;50.690;4.400;2023-03-31T02:18:48;14.57;;;1.83;;
21492;SDS011;10908;50.690;4.400;2023-03-31T02:21:17;10.00;;;1.73;;
21492;SDS011;10908;50.690;4.400;2023-03-31T02:23:44;10.68;;;1.60;;
21492;SDS011;10908;50.690;4.400;2023-03-31T02:26:13;8.55;;;1.38;;
21492;SDS011;10908;50.690;4.400;2023-03-31T02:28:43;11.40;;;1.77;;
21492;SDS011;10908;50.690;4.400;2023-03-31T02:34:12;7.72;;;1.40;;
21492;SDS011;10908;50.690;4.400;2023-03-31T02:36:38;14.07;;;1.50;;
21492;SDS011;10908;50.690;4.400;2023-03-31T02:39:07;9.88;;;1.20;;
21492;SDS011;10908;50.690;4.400;2023-03-31T02:41:35;12.18;;;1.42;;
21492;SDS011;10908;50.690;4.400;2023-03-31T02:44:01;8.13;;;1.70;;
21492;SDS011;10908;50.690;4.400;2023-03-31T02:46:27;10.85;;;1.42;;
21492;SDS011;10908;50.690;4.400;2023-03-31T02:48:54;11.10;;;1.30;;
21492;SDS011;10908;50.690;4.400;2023-03-31T02:54:43;7.35;;;1.42;;
21492;SDS011;10908;50.690;4.400;2023-03-31T02:57:18;9.60;;;1.35;;
21492;SDS011;10908;50.690;4.400;2023-03-31T03:00:10;9.80;;;1.27;;
21492;SDS011;10908;50.690;4.400;2023-03-31T03:05:41;8.43;;;1.45;;
21492;SDS011;10908;50.690;4.400;2023-03-31T03:16:10;8.50;;;1.30;;
21492;SDS011;10908;50.690;4.400;2023-03-31T03:19:18;9.98;;;1.25;;
21492;SDS011;10908;50.690;4.400;2023-03-31T03:21:45;9.18;;;1.67;;
21492;SDS011;10908;50.690;4.400;2023-03-31T03:24:12;14.48;;;1.98;;
21492;SDS011;10908;50.690;4.400;2023-03-31T03:26:39;9.75;;;1.48;;
21492;SDS011;10908;50.690;4.400;2023-03-31T03:29:05;8.23;;;1.60;;
21492;SDS011;10908;50.690;4.400;2023-03-31T03:31:31;11.50;;;1.58;;
21492;SDS011;10908;50.690;4.400;2023-03-31T03:33:57;9.48;;;1.23;;
21492;SDS011;10908;50.690;4.400;2023-03-31T03:36:23;11.77;;;1.80;;
21492;SDS011;10908;50.690;4.400;2023-03-31T03:38:48;11.23;;;1.75;;
21492;SDS011;10908;50.690;4.400;2023-03-31T03:41:14;10.98;;;1.58;;
21492;SDS011;10908;50.690;4.400;2023-03-31T03:43:41;11.30;;;1.92;;
21492;SDS011;10908;50.690;4.400;2023-03-31T03:46:06;17.88;;;1.90;;
21492;SDS011;10908;50.690;4.400;2023-03-31T03:48:32;14.57;;;1.63;;
21492;SDS011;10908;50.690;4.400;2023-03-31T03:50:58;10.50;;;1.83;;
21492;SDS011;10908;50.690;4.400;2023-03-31T03:53:24;10.65;;;1.40;;
21492;SDS011;10908;50.690;4.400;2023-03-31T03:55:50;11.55;;;1.67;;
21492;SDS011;10908;50.690;4.400;2023-03-31T03:58:16;13.88;;;1.77;;
21492;SDS011;10908;50.690;4.400;2023-03-31T04:00:43;13.15;;;1.77;;
21492;SDS011;10908;50.690;4.400;2023-03-31T04:03:10;16.75;;;1.75;;
21492;SDS011;10908;50.690;4.400;2023-03-31T04:05:36;10.52;;;1.73;;
21492;SDS011;10908;50.690;4.400;2023-03-31T04:08:02;7.75;;;1.13;;
21492;SDS011;10908;50.690;4.400;2023-03-31T04:10:28;9.43;;;1.30;;
21492;SDS011;10908;50.690;4.400;2023-03-31T04:12:54;6.53;;;1.30;;
21492;SDS011;10908;50.690;4.400;2023-03-31T04:15:20;10.40;;;1.50;;
21492;SDS011;10908;50.690;4.400;2023-03-31T04:17:45;8.95;;;1.70;;
21492;SDS011;10908;50.690;4.400;2023-03-31T04:20:14;11.05;;;1.50;;
21492;SDS011;10908;50.690;4.400;2023-03-31T04:22:41;9.73;;;1.40;;
21492;SDS011;10908;50.690;4.400;2023-03-31T04:25:11;11.52;;;1.83;;
21492;SDS011;10908;50.690;4.400;2023-03-31T04:27:45;11.45;;;1.60;;
21492;SDS011;10908;50.690;4.400;2023-03-31T04:30:19;10.15;;;1.77;;
21492;SDS011;10908;50.690;4.400;2023-03-31T04:32:57;17.83;;;2.33;;
21492;SDS011;10908;50.690;4.400;2023-03-31T04:35:25;12.25;;;1.75;;
21492;SDS011;10908;50.690;4.400;2023-03-31T04:38:12;13.00;;;1.70;;
21492;SDS011;10908;50.690;4.400;2023-03-31T04:40:38;11.70;;;1.83;;
21492;SDS011;10908;50.690;4.400;2023-03-31T04:43:05;11.85;;;2.05;;
21492;SDS011;10908;50.690;4.400;2023-03-31T04:45:31;14.70;;;1.90;;
21492;SDS011;10908;50.690;4.400;2023-03-31T04:47:56;12.82;;;2.03;;
21492;SDS011;10908;50.690;4.400;2023-03-31T04:50:22;8.73;;;1.98;;
21492;SDS011;10908;50.690;4.400;2023-03-31T04:52:47;10.60;;;1.83;;
21492;SDS011;10908;50.690;4.400;2023-03-31T04:55:13;13.82;;;2.15;;
21492;SDS011;10908;50.690;4.400;2023-03-31T04:57:39;16.38;;;2.20;;
21492;SDS011;10908;50.690;4.400;2023-03-31T05:00:06;14.60;;;2.25;;
21492;SDS011;10908;50.690;4.400;2023-03-31T05:02:33;17.55;;;2.10;;
21492;SDS011;10908;50.690;4.400;2023-03-31T05:04:59;17.33;;;2.17;;
21492;SDS011;10908;50.690;4.400;2023-03-31T05:07:24;12.27;;;1.90;;
21492;SDS011;10908;50.690;4.400;2023-03-31T05:09:50;15.40;;;2.22;;
21492;SDS011;10908;50.690;4.400;2023-03-31T05:12:15;17.52;;;2.33;;
21492;SDS011;10908;50.690;4.400;2023-03-31T05:14:41;10.02;;;1.83;;
21492;SDS011;10908;50.690;4.400;2023-03-31T05:17:07;14.27;;;2.33;;
21492;SDS011;10908;50.690;4.400;2023-03-31T05:19:32;12.63;;;2.00;;
21492;SDS011;10908;50.690;4.400;2023-03-31T05:21:58;11.25;;;1.88;;
21492;SDS011;10908;50.690;4.400;2023-03-31T05:24:24;19.38;;;1.95;;
21492;SDS011;10908;50.690;4.400;2023-03-31T05:26:52;14.88;;;2.28;;
21492;SDS011;10908;50.690;4.400;2023-03-31T05:29:18;12.23;;;2.08;;
21492;SDS011;10908;50.690;4.400;2023-03-31T05:31:44;14.15;;;2.13;;
21492;SDS011;10908;50.690;4.400;2023-03-31T05:34:10;16.52;;;2.20;;
21492;SDS011;10908;50.690;4.400;2023-03-31T05:36:36;9.00;;;1.65;;
21492;SDS011;10908;50.690;4.400;2023-03-31T05:39:02;15.10;;;2.10;;
21492;SDS011;10908;50.690;4.400;2023-03-31T05:41:32;15.77;;;2.20;;
21492;SDS011;10908;50.690;4.400;2023-03-31T05:43:58;14.05;;;2.03;;
21492;SDS011;10908;50.690;4.400;2023-03-31T05:46:23;15.40;;;2.17;;
21492;SDS011;10908;50.690;4.400;2023-03-31T05:48:50;13.55;;;2.47;;
21492;SDS011;10908;50.690;4.400;2023-03-31T05:51:16;12.48;;;2.50;;
21492;SDS011;10908;50.690;4.400;2023-03-31T05:53:42;14.43;;;2.38;;
21492;SDS011;10908;50.690;4.400;2023-03-31T05:56:08;14.20;;;2.33;;
21492;SDS011;10908;50.690;4.400;2023-03-31T05:58:34;14.30;;;2.25;;
21492;SDS011;10908;50.690;4.400;2023-03-31T06:01:04;13.48;;;2.50;;
21492;SDS011;10908;50.690;4.400;2023-03-31T06:03:35;11.20;;;1.70;;
21492;SDS011;10908;50.690;4.400;2023-03-31T06:06:03;14.00;;;2.58;;
21492;SDS011;10908;50.690;4.400;2023-03-31T06:08:32;11.90;;;1.90;;
21492;SDS011;10908;50.690;4.400;2023-03-31T06:10:59;13.25;;;2.28;;
21492;SDS011;10908;50.690;4.400;2023-03-31T06:13:25;20.83;;;2.55;;
21492;SDS011;10908;50.690;4.400;2023-03-31T06:15:57;14.40;;;2.55;;
21492;SDS011;10908;50.690;4.400;2023-03-31T06:18:25;16.77;;;2.63;;
21492;SDS011;10908;50.690;4.400;2023-03-31T06:20:52;13.90;;;2.65;;
21492;SDS011;10908;50.690;4.400;2023-03-31T06:23:21;18.80;;;2.60;;
21492;SDS011;10908;50.690;4.400;2023-03-31T06:25:48;16.23;;;2.55;;
21492;SDS011;10908;50.690;4.400;2023-03-31T06:28:14;13.00;;;1.75;;
21492;SDS011;10908;50.690;4.400;2023-03-31T06:30:39;15.98;;;2.55;;
21492;SDS011;10908;50.690;4.400;2023-03-31T06:33:05;14.60;;;2.15;;
21492;SDS011;10908;50.690;4.400;2023-03-31T06:35:31;19.52;;;2.63;;
21492;SDS011;10908;50.690;4.400;2023-03-31T06:37:57;18.80;;;3.00;;
21492;SDS011;10908;50.690;4.400;2023-03-31T06:40:23;13.80;;;2.40;;
21492;SDS011;10908;50.690;4.400;2023-03-31T06:42:48;15.43;;;2.30;;
21492;SDS011;10908;50.690;4.400;2023-03-31T06:45:14;20.90;;;2.80;;
21492;SDS011;10908;50.690;4.400;2023-03-31T06:47:40;18.23;;;2.30;;
21492;SDS011;10908;50.690;4.400;2023-03-31T06:50:06;15.27;;;2.95;;
21492;SDS011;10908;50.690;4.400;2023-03-31T06:52:34;19.13;;;2.67;;
21492;SDS011;10908;50.690;4.400;2023-03-31T06:55:00;15.38;;;2.50;;
21492;SDS011;10908;50.690;4.400;2023-03-31T06:57:27;14.55;;;2.70;;
21492;SDS011;10908;50.690;4.400;2023-03-31T06:59:53;13.90;;;2.30;;
21492;SDS011;10908;50.690;4.400;2023-03-31T07:02:19;18.25;;;2.92;;
21492;SDS011;10908;50.690;4.400;2023-03-31T07:04:45;13.95;;;2.40;;
21492;SDS011;10908;50.690;4.400;2023-03-31T07:07:11;17.75;;;2.80;;
21492;SDS011;10908;50.690;4.400;2023-03-31T07:09:37;15.07;;;2.50;;
21492;SDS011;10908;50.690;4.400;2023-03-31T07:12:03;13.90;;;2.30;;
21492;SDS011;10908;50.690;4.400;2023-03-31T07:14:29;18.95;;;2.60;;
21492;SDS011;10908;50.690;4.400;2023-03-31T07:16:55;19.85;;;2.58;;
21492;SDS011;10908;50.690;4.400;2023-03-31T07:19:21;19.83;;;3.00;;
21492;SDS011;10908;50.690;4.400;2023-03-31T07:21:47;15.55;;;2.55;;
21492;SDS011;10908;50.690;4.400;2023-03-31T07:24:13;14.80;;;2.40;;
21492;SDS011;10908;50.690;4.400;2023-03-31T07:26:38;13.55;;;2.30;;
21492;SDS011;10908;50.690;4.400;2023-03-31T07:29:04;14.35;;;2.38;;
21492;SDS011;10908;50.690;4.400;2023-03-31T07:31:30;19.52;;;2.40;;
21492;SDS011;10908;50.690;4.400;2023-03-31T07:33:56;21.52;;;3.08;;
21492;SDS011;10908;50.690;4.400;2023-03-31T07:36:22;13.55;;;2.33;;
21492;SDS011;10908;50.690;4.400;2023-03-31T07:38:48;17.85;;;2.22;;
21492;SDS011;10908;50.690;4.400;2023-03-31T07:41:15;17.92;;;2.70;;
21492;SDS011;10908;50.690;4.400;2023-03-31T07:43:43;19.00;;;3.67;;
21492;SDS011;10908;50.690;4.400;2023-03-31T07:46:28;14.50;;;2.90;;
21492;SDS011;10908;50.690;4.400;2023-03-31T07:48:54;15.80;;;2.72;;
21492;SDS011;10908;50.690;4.400;2023-03-31T07:51:22;15.13;;;2.22;;
21492;SDS011;10908;50.690;4.400;2023-03-31T07:53:50;18.13;;;2.30;;
21492;SDS011;10908;50.690;4.400;2023-03-31T07:56:20;16.35;;;2.85;;
21492;SDS011;10908;50.690;4.400;2023-03-31T07:58:47;21.52;;;2.90;;
21492;SDS011;10908;50.690;4.400;2023-03-31T08:01:14;18.17;;;2.80;;
21492;SDS011;10908;50.690;4.400;2023-03-31T08:03:41;16.25;;;2.83;;
21492;SDS011;10908;50.690;4.400;2023-03-31T08:06:07;19.00;;;2.78;;
21492;SDS011;10908;50.690;4.400;2023-03-31T08:08:33;20.08;;;2.42;;
21492;SDS011;10908;50.690;4.400;2023-03-31T08:10:59;14.25;;;2.92;;
21492;SDS011;10908;50.690;4.400;2023-03-31T08:13:24;20.25;;;3.10;;
21492;SDS011;10908;50.690;4.400;2023-03-31T08:15:50;18.63;;;2.83;;
21492;SDS011;10908;50.690;4.400;2023-03-31T08:18:16;21.05;;;2.88;;
21492;SDS011;10908;50.690;4.400;2023-03-31T08:20:42;14.40;;;2.40;;
21492;SDS011;10908;50.690;4.400;2023-03-31T08:23:07;16.55;;;2.58;;
21492;SDS011;10908;50.690;4.400;2023-03-31T08:25:35;14.32;;;2.35;;
21492;SDS011;10908;50.690;4.400;2023-03-31T08:28:02;15.02;;;2.35;;
21492;SDS011;10908;50.690;4.400;2023-03-31T08:30:27;15.43;;;2.65;;
21492;SDS011;10908;50.690;4.400;2023-03-31T08:32:53;15.02;;;1.95;;
21492;SDS011;10908;50.690;4.400;2023-03-31T08:35:18;12.10;;;1.70;;
21492;SDS011;10908;50.690;4.400;2023-03-31T08:37:44;14.52;;;1.83;;
21492;SDS011;10908;50.690;4.400;2023-03-31T08:40:13;12.13;;;1.90;;
21492;SDS011;10908;50.690;4.400;2023-03-31T08:42:44;16.63;;;2.00;;
21492;SDS011;10908;50.690;4.400;2023-03-31T08:50:52;15.70;;;2.67;;
21492;SDS011;10908;50.690;4.400;2023-03-31T08:53:28;17.48;;;2.65;;
21492;SDS011;10908;50.690;4.400;2023-03-31T08:55:58;20.65;;;3.03;;
21492;SDS011;10908;50.690;4.400;2023-03-31T08:58:41;16.10;;;2.80;;
21492;SDS011;10908;50.690;4.400;2023-03-31T09:06:34;21.17;;;2.90;;
21492;SDS011;10908;50.690;4.400;2023-03-31T09:09:02;16.95;;;3.08;;
21492;SDS011;10908;50.690;4.400;2023-03-31T09:11:34;21.98;;;3.03;;
21492;SDS011;10908;50.690;4.400;2023-03-31T09:14:21;20.00;;;3.45;;
21492;SDS011;10908;50.690;4.400;2023-03-31T09:19:47;20.85;;;2.92;;
21492;SDS011;10908;50.690;4.400;2023-03-31T09:22:22;22.30;;;3.28;;
21492;SDS011;10908;50.690;4.400;2023-03-31T09:25:04;25.25;;;3.70;;
21492;SDS011;10908;50.690;4.400;2023-03-31T09:27:36;21.10;;;3.60;;
21492;SDS011;10908;50.690;4.400;2023-03-31T09:32:35;29.70;;;3.67;;
21492;SDS011;10908;50.690;4.400;2023-03-31T09:35:13;25.63;;;3.35;;
21492;SDS011;10908;50.690;4.400;2023-03-31T09:37:46;23.25;;;3.22;;
21492;SDS011;10908;50.690;4.400;2023-03-31T09:40:20;21.58;;;3.30;;
21492;SDS011;10908;50.690;4.400;2023-03-31T09:42:58;22.02;;;3.72;;
21492;SDS011;10908;50.690;4.400;2023-03-31T09:45:26;22.58;;;3.28;;
21492;SDS011;10908;50.690;4.400;2023-03-31T09:47:53;24.80;;;3.60;;
21492;SDS011;10908;50.690;4.400;2023-03-31T09:50:21;18.77;;;2.95;;
21492;SDS011;10908;50.690;4.400;2023-03-31T09:52:48;27.13;;;3.72;;
21492;SDS011;10908;50.690;4.400;2023-03-31T09:55:23;23.88;;;3.28;;
21492;SDS011;10908;50.690;4.400;2023-03-31T09:58:12;25.65;;;3.95;;
21492;SDS011;10908;50.690;4.400;2023-03-31T10:00:54;24.13;;;3.35;;
21492;SDS011;10908;50.690;4.400;2023-03-31T10:03:25;24.17;;;3.90;;
21492;SDS011;10908;50.690;4.400;2023-03-31T10:05:53;23.58;;;3.22;;
21492;SDS011;10908;50.690;4.400;2023-03-31T10:08:27;20.42;;;3.50;;
21492;SDS011;10908;50.690;4.400;2023-03-31T10:13:33;18.55;;;2.63;;
21492;SDS011;10908;50.690;4.400;2023-03-31T10:16:30;14.75;;;3.20;;
21492;SDS011;10908;50.690;4.400;2023-03-31T10:19:42;18.73;;;3.05;;
21492;SDS011;10908;50.690;4.400;2023-03-31T10:21:49;17.42;;;2.70;;
21492;SDS011;10908;50.690;4.400;2023-03-31T10:24:37;21.38;;;3.10;;
21492;SDS011;10908;50.690;4.400;2023-03-31T10:27:05;22.15;;;3.20;;
21492;SDS011;10908;50.690;4.400;2023-03-31T10:29:38;16.77;;;2.80;;
21492;SDS011;10908;50.690;4.400;2023-03-31T10:32:08;17.98;;;2.95;;
21492;SDS011;10908;50.690;4.400;2023-03-31T10:34:47;18.63;;;2.80;;
21492;SDS011;10908;50.690;4.400;2023-03-31T10:37:14;17.00;;;2.85;;
21492;SDS011;10908;50.690;4.400;2023-03-31T10:39:46;22.25;;;4.15;;
21492;SDS011;10908;50.690;4.400;2023-03-31T10:42:20;21.50;;;3.03;;
21492;SDS011;10908;50.690;4.400;2023-03-31T10:44:47;17.42;;;2.22;;
21492;SDS011;10908;50.690;4.400;2023-03-31T10:49:47;18.77;;;2.55;;
21492;SDS011;10908;50.690;4.400;2023-03-31T10:52:23;20.05;;;2.83;;
21492;SDS011;10908;50.690;4.400;2023-03-31T10:54:57;20.30;;;3.00;;
21492;SDS011;10908;50.690;4.400;2023-03-31T10:57:34;19.75;;;2.75;;
21492;SDS011;10908;50.690;4.400;2023-03-31T11:03:17;16.48;;;2.30;;
21492;SDS011;10908;50.690;4.400;2023-03-31T11:11:23;12.60;;;2.05;;
21492;SDS011;10908;50.690;4.400;2023-03-31T11:14:01;19.00;;;2.55;;
21492;SDS011;10908;50.690;4.400;2023-03-31T11:19:27;13.75;;;2.20;;
21492;SDS011;10908;50.690;4.400;2023-03-31T11:27:54;16.88;;;2.17;;
21492;SDS011;10908;50.690;4.400;2023-03-31T11:30:45;13.38;;;1.95;;
21492;SDS011;10908;50.690;4.400;2023-03-31T11:41:49;11.68;;;1.60;;
21492;SDS011;10908;50.690;4.400;2023-03-31T11:44:19;14.75;;;2.13;;
21492;SDS011;10908;50.690;4.400;2023-03-31T11:49:26;12.85;;;2.10;;
21492;SDS011;10908;50.690;4.400;2023-03-31T11:52:05;12.82;;;1.95;;
21492;SDS011;10908;50.690;4.400;2023-03-31T11:54:37;11.95;;;2.00;;
21492;SDS011;10908;50.690;4.400;2023-03-31T11:57:15;16.25;;;2.45;;
21492;SDS011;10908;50.690;4.400;2023-03-31T11:59:46;12.60;;;1.67;;
21492;SDS011;10908;50.690;4.400;2023-03-31T12:02:29;10.90;;;2.10;;
21492;SDS011;10908;50.690;4.400;2023-03-31T12:05:17;17.27;;;2.20;;
21492;SDS011;10908;50.690;4.400;2023-03-31T12:07:47;12.20;;;1.77;;
21492;SDS011;10908;50.690;4.400;2023-03-31T12:10:37;14.10;;;2.00;;
21492;SDS011;10908;50.690;4.400;2023-03-31T12:16:16;12.52;;;1.88;;
21492;SDS011;10908;50.690;4.400;2023-03-31T12:21:42;11.65;;;1.70;;
21492;SDS011;10908;50.690;4.400;2023-03-31T12:24:15;11.43;;;1.63;;
21492;SDS011;10908;50.690;4.400;2023-03-31T12:26:53;11.90;;;1.60;;
21492;SDS011;10908;50.690;4.400;2023-03-31T12:29:38;14.35;;;2.00;;
21492;SDS011;10908;50.690;4.400;2023-03-31T12:32:16;14.55;;;2.10;;
21492;SDS011;10908;50.690;4.400;2023-03-31T12:34:46;13.73;;;2.20;;
21492;SDS011;10908;50.690;4.400;2023-03-31T12:37:31;13.50;;;2.38;;
21492;SDS011;10908;50.690;4.400;2023-03-31T12:43:23;13.00;;;2.22;;
21492;SDS011;10908;50.690;4.400;2023-03-31T12:45:56;14.82;;;1.92;;
21492;SDS011;10908;50.690;4.400;2023-03-31T12:49:03;9.38;;;1.40;;
21492;SDS011;10908;50.690;4.400;2023-03-31T12:54:15;10.45;;;1.58;;
21492;SDS011;10908;50.690;4.400;2023-03-31T12:59:35;8.32;;;1.25;;
21492;SDS011;10908;50.690;4.400;2023-03-31T13:04:33;9.50;;;1.30;;
21492;SDS011;10908;50.690;4.400;2023-03-31T13:07:03;10.40;;;1.55;;
21492;SDS011;10908;50.690;4.400;2023-03-31T13:09:40;9.55;;;1.50;;
21492;SDS011;10908;50.690;4.400;2023-03-31T13:12:29;11.90;;;1.40;;
21492;SDS011;10908;50.690;4.400;2023-03-31T13:14:57;8.82;;;1.65;;
21492;SDS011;10908;50.690;4.400;2023-03-31T13:17:26;10.70;;;1.20;;
21492;SDS011;10908;50.690;4.400;2023-03-31T13:23:03;10.80;;;1.20;;
21492;SDS011;10908;50.690;4.400;2023-03-31T13:25:36;8.48;;;1.23;;
21492;SDS011;10908;50.690;4.400;2023-03-31T13:28:13;6.70;;;1.00;;
21492;SDS011;10908;50.690;4.400;2023-03-31T13:33:36;9.00;;;1.35;;
21492;SDS011;10908;50.690;4.400;2023-03-31T13:50:03;7.03;;;0.90;;
21492;SDS011;10908;50.690;4.400;2023-03-31T13:52:52;5.10;;;1.00;;
21492;SDS011;10908;50.690;4.400;2023-03-31T13:58:43;4.63;;;0.70;;
21492;SDS011;10908;50.690;4.400;2023-03-31T14:06:57;3.83;;;0.60;;
21492;SDS011;10908;50.690;4.400;2023-03-31T14:09:32;6.97;;;0.43;;
21492;SDS011;10908;50.690;4.400;2023-03-31T14:12:00;4.00;;;0.50;;
21492;SDS011;10908;50.690;4.400;2023-03-31T14:14:42;1.55;;;0.35;;
21492;SDS011;10908;50.690;4.400;2023-03-31T14:17:08;3.28;;;0.45;;
21492;SDS011;10908;50.690;4.400;2023-03-31T14:25:11;3.30;;;0.40;;
21492;SDS011;10908;50.690;4.400;2023-03-31T14:33:22;1.73;;;0.30;;
21492;SDS011;10908;50.690;4.400;2023-03-31T14:39:03;2.65;;;0.30;;
21492;SDS011;10908;50.690;4.400;2023-03-31T14:41:30;3.40;;;0.55;;
21492;SDS011;10908;50.690;4.400;2023-03-31T14:43:57;1.90;;;0.43;;
21492;SDS011;10908;50.690;4.400;2023-03-31T14:46:28;3.67;;;0.50;;
21492;SDS011;10908;50.690;4.400;2023-03-31T14:48:56;3.55;;;0.50;;
21492;SDS011;10908;50.690;4.400;2023-03-31T14:51:27;5.13;;;0.60;;
21492;SDS011;10908;50.690;4.400;2023-03-31T14:53:58;3.42;;;0.80;;
21492;SDS011;10908;50.690;4.400;2023-03-31T14:56:29;3.78;;;0.60;;
21492;SDS011;10908;50.690;4.400;2023-03-31T14:59:01;3.35;;;0.60;;
21492;SDS011;10908;50.690;4.400;2023-03-31T15:01:29;3.00;;;0.63;;
21492;SDS011;10908;50.690;4.400;2023-03-31T15:04:07;4.25;;;0.70;;
21492;SDS011;10908;50.690;4.400;2023-03-31T15:06:40;4.45;;;0.80;;
21492;SDS011;10908;50.690;4.400;2023-03-31T15:09:12;4.30;;;0.80;;
21492;SDS011;10908;50.690;4.400;2023-03-31T15:12:01;3.45;;;0.80;;
21492;SDS011;10908;50.690;4.400;2023-03-31T15:14:31;7.72;;;2.38;;
21492;SDS011;10908;50.690;4.400;2023-03-31T15:17:00;4.18;;;0.70;;
21492;SDS011;10908;50.690;4.400;2023-03-31T15:19:29;8.30;;;3.10;;
21492;SDS011;10908;50.690;4.400;2023-03-31T15:21:59;16.08;;;11.05;;
21492;SDS011;10908;50.690;4.400;2023-03-31T15:24:38;11.35;;;7.35;;
21492;SDS011;10908;50.690;4.400;2023-03-31T15:27:04;5.90;;;2.67;;
21492;SDS011;10908;50.690;4.400;2023-03-31T15:29:42;3.55;;;1.00;;
21492;SDS011;10908;50.690;4.400;2023-03-31T15:34:51;4.85;;;0.90;;
21492;SDS011;10908;50.690;4.400;2023-03-31T15:37:23;3.22;;;0.88;;
21492;SDS011;10908;50.690;4.400;2023-03-31T15:39:53;6.90;;;1.10;;
21492;SDS011;10908;50.690;4.400;2023-03-31T15:57:50;7.65;;;1.27;;
21492;SDS011;10908;50.690;4.400;2023-03-31T16:02:58;6.30;;;1.30;;
21492;SDS011;10908;50.690;4.400;2023-03-31T16:05:34;6.82;;;1.00;;
21492;SDS011;10908;50.690;4.400;2023-03-31T16:08:13;6.03;;;1.20;;
21492;SDS011;10908;50.690;4.400;2023-03-31T16:10:59;9.00;;;1.30;;
21492;SDS011;10908;50.690;4.400;2023-03-31T16:13:32;6.65;;;1.38;;
21492;SDS011;10908;50.690;4.400;2023-03-31T16:15:59;6.55;;;0.90;;
21492;SDS011;10908;50.690;4.400;2023-03-31T16:21:00;8.77;;;1.40;;
21492;SDS011;10908;50.690;4.400;2023-03-31T16:23:33;8.45;;;1.17;;
21492;SDS011;10908;50.690;4.400;2023-03-31T16:26:02;8.98;;;1.20;;
21492;SDS011;10908;50.690;4.400;2023-03-31T16:28:29;7.38;;;1.13;;
21492;SDS011;10908;50.690;4.400;2023-03-31T16:30:57;7.30;;;1.10;;
21492;SDS011;10908;50.690;4.400;2023-03-31T16:33:26;7.03;;;1.27;;
21492;SDS011;10908;50.690;4.400;2023-03-31T16:35:55;7.75;;;1.08;;
21492;SDS011;10908;50.690;4.400;2023-03-31T16:38:23;6.82;;;1.10;;
21492;SDS011;10908;50.690;4.400;2023-03-31T16:40:55;8.35;;;1.48;;
21492;SDS011;10908;50.690;4.400;2023-03-31T16:43:25;8.55;;;1.10;;
21492;SDS011;10908;50.690;4.400;2023-03-31T16:45:56;7.10;;;1.20;;
21492;SDS011;10908;50.690;4.400;2023-03-31T16:48:25;9.38;;;1.40;;
21492;SDS011;10908;50.690;4.400;2023-03-31T16:50:53;9.18;;;1.25;;
21492;SDS011;10908;50.690;4.400;2023-03-31T16:53:21;7.47;;;1.20;;
21492;SDS011;10908;50.690;4.400;2023-03-31T16:55:48;9.40;;;1.10;;
21492;SDS011;10908;50.690;4.400;2023-03-31T16:58:14;7.75;;;1.20;;
21492;SDS011;10908;50.690;4.400;2023-03-31T17:00:40;8.60;;;1.08;;
21492;SDS011;10908;50.690;4.400;2023-03-31T17:03:07;13.88;;;1.52;;
21492;SDS011;10908;50.690;4.400;2023-03-31T17:05:38;9.60;;;1.40;;
21492;SDS011;10908;50.690;4.400;2023-03-31T17:08:06;6.95;;;1.20;;
21492;SDS011;10908;50.690;4.400;2023-03-31T17:10:34;8.25;;;1.30;;
21492;SDS011;10908;50.690;4.400;2023-03-31T17:13:00;6.68;;;1.17;;
21492;SDS011;10908;50.690;4.400;2023-03-31T17:15:26;8.85;;;1.30;;
21492;SDS011;10908;50.690;4.400;2023-03-31T17:17:54;7.20;;;1.23;;
21492;SDS011;10908;50.690;4.400;2023-03-31T17:20:23;9.55;;;1.48;;
21492;SDS011;10908;50.690;4.400;2023-03-31T17:22:49;6.90;;;1.25;;
21492;SDS011;10908;50.690;4.400;2023-03-31T17:25:15;9.57;;;1.17;;
21492;SDS011;10908;50.690;4.400;2023-03-31T17:27:42;11.57;;;1.92;;
21492;SDS011;10908;50.690;4.400;2023-03-31T17:30:08;10.45;;;1.60;;
21492;SDS011;10908;50.690;4.400;2023-03-31T17:32:34;10.40;;;1.50;;
21492;SDS011;10908;50.690;4.400;2023-03-31T17:35:00;9.48;;;1.50;;
21492;SDS011;10908;50.690;4.400;2023-03-31T17:37:27;12.70;;;1.65;;
21492;SDS011;10908;50.690;4.400;2023-03-31T17:39:53;13.40;;;1.75;;
21492;SDS011;10908;50.690;4.400;2023-03-31T17:42:19;12.20;;;1.48;;
21492;SDS011;10908;50.690;4.400;2023-03-31T17:44:49;10.38;;;1.45;;
21492;SDS011;10908;50.690;4.400;2023-03-31T17:47:18;10.40;;;1.55;;
21492;SDS011;10908;50.690;4.400;2023-03-31T17:49:45;14.75;;;1.52;;
21492;SDS011;10908;50.690;4.400;2023-03-31T17:52:13;12.55;;;1.60;;
21492;SDS011;10908;50.690;4.400;2023-03-31T17:54:40;13.00;;;1.70;;
21492;SDS011;10908;50.690;4.400;2023-03-31T17:57:07;17.85;;;1.83;;